createdAt,value
2019-05-14T00:01:03.296Z,43.20
2019-05-14T00:03:32.174Z,43.36
2019-05-14T00:06:02.221Z,43.45
2019-05-14T00:08:31.670Z,43.50
2019-05-14T00:11:01.450Z,44.08
2019-05-14T00:13:32.102Z,44.17
2019-05-14T00:16:01.578Z,44.37
2019-05-14T00:18:31.504Z,44.41
2019-05-14T00:21:01.873Z,44.63
2019-05-14T00:23:31.875Z,44.62
2019-05-14T00:26:01.913Z,44.80
2019-05-14T00:28:31.781Z,44.83
2019-05-14T00:31:02.874Z,44.80
2019-05-14T00:33:31.814Z,44.89
2019-05-14T00:36:02.152Z,45.14
2019-05-14T00:38:31.636Z,45.41
2019-05-14T00:41:01.953Z,45.57
2019-05-14T00:43:32.355Z,45.79
2019-05-14T00:46:01.835Z,45.80
2019-05-14T00:48:31.789Z,46.21
2019-05-14T00:51:02.222Z,46.38
2019-05-14T00:53:32.144Z,46.37
2019-05-14T00:56:02.142Z,46.90
2019-05-14T00:58:31.508Z,47.12
2019-05-14T01:01:01.560Z,47.15
2019-05-14T01:03:32.392Z,47.37
2019-05-14T01:06:02.991Z,47.50
2019-05-14T01:08:32.205Z,47.47
2019-05-14T01:11:01.754Z,47.55
2019-05-14T01:13:31.393Z,47.60
2019-05-14T01:16:01.646Z,47.79
2019-05-14T01:18:32.273Z,48.06
2019-05-14T01:21:01.869Z,48.05
2019-05-14T01:23:32.326Z,48.49
2019-05-14T01:26:02.247Z,48.88
2019-05-14T01:28:32.262Z,49.14
2019-05-14T01:31:01.486Z,49.33
2019-05-14T01:33:31.825Z,49.58
2019-05-14T01:36:02.057Z,49.48
2019-05-14T01:38:31.654Z,49.76
2019-05-14T01:41:01.834Z,49.87
2019-05-14T01:43:31.615Z,49.92
2019-05-14T01:46:01.951Z,50.17
2019-05-14T01:48:31.421Z,50.31
2019-05-14T01:51:01.534Z,50.58
2019-05-14T01:53:31.293Z,50.67
2019-05-14T01:56:01.710Z,50.65
2019-05-14T01:58:31.289Z,51.04
2019-05-14T02:01:01.933Z,51.06
2019-05-14T02:03:32.298Z,51.32
2019-05-14T02:06:01.752Z,51.42
2019-05-14T02:08:32.238Z,51.50
2019-05-14T02:11:01.870Z,51.79
2019-05-14T02:13:32.219Z,52.03
2019-05-14T02:16:02.052Z,52.12
2019-05-14T02:18:31.629Z,52.20
2019-05-14T02:21:01.526Z,52.39
2019-05-14T02:23:32.061Z,52.45
2019-05-14T02:26:02.602Z,52.65
2019-05-14T02:28:31.776Z,52.68
2019-05-14T02:31:03.366Z,52.97
2019-05-14T02:33:31.638Z,52.95
2019-05-14T02:36:00.704Z,53.06
2019-05-14T02:38:30.178Z,53.23
2019-05-14T02:41:00.154Z,53.43
2019-05-14T02:43:30.177Z,53.53
2019-05-14T02:46:10.814Z,53.84
2019-05-14T02:48:30.028Z,53.95
2019-05-14T02:51:00.024Z,54.02
2019-05-14T02:53:29.880Z,54.39
2019-05-14T02:55:59.647Z,54.64
2019-05-14T02:58:29.962Z,54.57
2019-05-14T03:01:00.409Z,54.64
2019-05-14T03:03:30.181Z,54.78
2019-05-14T03:06:00.496Z,54.87
2019-05-14T03:08:30.556Z,54.96
2019-05-14T03:11:00.429Z,55.13
2019-05-14T03:13:30.016Z,55.12
2019-05-14T03:15:59.759Z,55.32
2019-05-14T03:18:29.708Z,55.48
2019-05-14T03:21:00.892Z,55.63
2019-05-14T03:23:30.447Z,55.77
2019-05-14T03:26:00.458Z,55.85
2019-05-14T03:28:30.627Z,56.03
2019-05-14T03:31:02.994Z,56.03
2019-05-14T03:33:33.471Z,56.20
2019-05-14T03:36:09.171Z,56.27
2019-05-14T03:38:32.229Z,56.47
2019-05-14T03:41:01.293Z,56.52
2019-05-14T03:43:30.359Z,56.62
2019-05-14T03:45:59.658Z,56.85
2019-05-14T03:48:29.780Z,57.11
2019-05-14T03:51:00.143Z,57.31
2019-05-14T03:53:30.081Z,57.49
2019-05-14T03:56:00.211Z,57.70
2019-05-14T03:58:30.324Z,57.78
2019-05-14T04:01:03.755Z,57.91
2019-05-14T04:03:33.039Z,58.10
2019-05-14T04:06:03.011Z,58.24
2019-05-14T04:08:33.565Z,58.25
2019-05-14T04:11:02.852Z,58.41
2019-05-14T04:13:33.767Z,58.56
2019-05-14T04:16:03.797Z,58.63
2019-05-14T04:18:35.842Z,58.81
2019-05-14T04:21:05.602Z,58.96
2019-05-14T04:23:39.701Z,59.28
2019-05-14T04:26:09.534Z,59.31
2019-05-14T04:28:41.126Z,59.60
2019-05-14T04:31:11.977Z,59.70
2019-05-14T04:33:45.213Z,59.82
2019-05-14T04:36:14.566Z,59.95
2019-05-14T04:38:43.645Z,60.15
2019-05-14T04:41:12.723Z,60.29
2019-05-14T04:43:42.048Z,60.53
2019-05-14T04:46:11.131Z,60.62
2019-05-14T04:48:43.591Z,60.86
2019-05-14T04:51:10.884Z,60.94
2019-05-14T04:53:39.938Z,61.25
2019-05-14T04:56:10.033Z,61.53
2019-05-14T04:58:40.925Z,61.67
2019-05-14T05:01:10.339Z,61.88
2019-05-14T05:03:40.275Z,61.90
2019-05-14T05:06:10.126Z,62.17
2019-05-14T05:08:39.835Z,62.50
2019-05-14T05:11:09.667Z,62.38
2019-05-14T05:13:39.842Z,62.34
2019-05-14T05:16:10.069Z,62.17
2019-05-14T05:18:40.177Z,62.21
2019-05-14T05:21:09.433Z,62.27
2019-05-14T05:23:38.909Z,62.40
2019-05-14T05:26:09.189Z,62.46
2019-05-14T05:28:39.226Z,62.49
2019-05-14T05:31:09.309Z,62.48
2019-05-14T05:33:38.706Z,62.46
2019-05-14T05:36:09.500Z,62.42
2019-05-14T05:38:39.351Z,62.47
2019-05-14T05:41:09.167Z,62.35
2019-05-14T05:43:39.343Z,62.18
2019-05-14T05:46:08.876Z,61.94
2019-05-14T05:48:38.963Z,61.84
2019-05-14T05:51:09.131Z,61.89
2019-05-14T05:53:39.328Z,61.85
2019-05-14T05:56:09.142Z,61.82
2019-05-14T05:58:39.737Z,61.85
2019-05-14T06:01:09.883Z,61.74
2019-05-14T06:03:39.468Z,61.81
2019-05-14T06:06:13.576Z,61.73
2019-05-14T06:08:39.526Z,61.77
2019-05-14T06:11:08.661Z,61.92
2019-05-14T06:13:39.168Z,62.03
2019-05-14T06:16:09.501Z,62.26
2019-05-14T06:18:39.526Z,62.23
2019-05-14T06:21:09.286Z,62.19
2019-05-14T06:23:38.883Z,62.20
2019-05-14T06:26:11.458Z,62.15
2019-05-14T06:28:40.937Z,62.22
2019-05-14T06:31:10.241Z,62.34
2019-05-14T06:33:39.772Z,62.35
2019-05-14T06:36:09.021Z,62.37
2019-05-14T06:38:38.841Z,62.23
2019-05-14T06:41:08.585Z,62.19
2019-05-14T06:43:39.269Z,62.22
2019-05-14T06:46:09.171Z,62.22
2019-05-14T06:48:39.720Z,62.20
2019-05-14T06:51:09.043Z,62.12
2019-05-14T06:53:39.316Z,62.21
2019-05-14T06:56:08.479Z,62.33
2019-05-14T06:58:38.960Z,62.44
2019-05-14T07:01:09.684Z,62.55
2019-05-14T07:03:38.934Z,62.44
2019-05-14T07:06:09.045Z,62.25
2019-05-14T07:08:39.315Z,62.10
2019-05-14T07:11:08.775Z,61.79
2019-05-14T07:13:38.580Z,61.63
2019-05-14T07:16:08.997Z,61.65
2019-05-14T07:18:52.562Z,61.60
2019-05-14T07:21:09.047Z,61.37
2019-05-14T07:23:38.607Z,61.20
2019-05-14T07:26:08.425Z,60.45
2019-05-14T07:28:41.969Z,60.08
2019-05-14T07:31:09.823Z,59.54
2019-05-14T07:33:39.173Z,59.26
2019-05-14T07:36:08.812Z,59.21
2019-05-14T07:38:39.205Z,59.03
2019-05-14T07:41:09.193Z,58.78
2019-05-14T07:43:39.320Z,58.30
2019-05-14T07:46:08.751Z,57.65
2019-05-14T07:48:39.270Z,57.26
2019-05-14T07:51:09.108Z,56.91
2019-05-14T07:53:42.216Z,56.85
2019-05-14T07:56:09.630Z,56.72
2019-05-14T07:58:38.943Z,57.33
2019-05-14T08:01:09.480Z,56.86
2019-05-14T08:03:38.784Z,56.02
2019-05-14T08:06:08.454Z,56.08
2019-05-14T08:08:38.631Z,56.12
2019-05-14T08:11:08.624Z,56.11
2019-05-14T08:13:39.048Z,55.62
2019-05-14T08:16:08.934Z,55.16
2019-05-14T08:18:39.587Z,53.51
2019-05-14T08:21:08.889Z,53.73
2019-05-14T08:23:39.136Z,53.99
2019-05-14T08:26:08.522Z,52.79
2019-05-14T08:28:38.230Z,52.78
2019-05-14T08:31:09.363Z,52.95
2019-05-14T08:33:39.726Z,53.06
2019-05-14T08:36:09.153Z,52.64
2019-05-14T08:38:38.473Z,52.66
2019-05-14T08:41:08.467Z,52.50
2019-05-14T08:43:39.712Z,52.20
2019-05-14T08:46:08.592Z,51.80
2019-05-14T08:48:38.971Z,51.43
2019-05-14T08:51:09.139Z,51.66
2019-05-14T08:53:38.843Z,51.69
2019-05-14T08:56:08.820Z,51.73
2019-05-14T08:58:38.917Z,51.55
2019-05-14T09:01:08.397Z,50.86
2019-05-14T09:03:39.304Z,50.58
2019-05-14T09:06:09.222Z,50.28
2019-05-14T09:08:39.167Z,50.00
2019-05-14T09:11:09.894Z,50.00
2019-05-14T09:13:39.381Z,49.66
2019-05-14T09:16:09.262Z,49.40
2019-05-14T09:18:38.863Z,49.12
2019-05-14T09:21:08.640Z,48.99
2019-05-14T09:23:39.201Z,48.95
2019-05-14T09:26:09.655Z,49.78
2019-05-14T09:28:39.491Z,49.16
2019-05-14T09:31:08.861Z,49.40
2019-05-14T09:33:39.028Z,49.26
2019-05-14T09:36:18.533Z,48.92
2019-05-14T09:38:42.187Z,48.37
2019-05-14T09:41:14.961Z,48.05
2019-05-14T09:43:40.778Z,47.90
2019-05-14T09:46:09.849Z,48.52
2019-05-14T09:48:38.868Z,48.54
2019-05-14T09:51:09.318Z,49.15
2019-05-14T09:53:38.565Z,49.28
2019-05-14T09:56:09.058Z,48.24
2019-05-14T09:58:38.922Z,47.18
2019-05-14T10:01:08.649Z,46.33
2019-05-14T10:03:39.049Z,45.73
2019-05-14T10:06:09.797Z,45.27
2019-05-14T10:08:39.262Z,45.05
2019-05-14T10:11:08.354Z,45.69
2019-05-14T10:13:39.353Z,47.08
2019-05-14T10:16:09.457Z,46.63
2019-05-14T10:18:38.789Z,45.27
2019-05-14T10:21:08.629Z,44.72
2019-05-14T10:23:38.999Z,43.52
2019-05-14T10:26:09.094Z,42.40
2019-05-14T10:28:41.278Z,43.69
2019-05-14T10:31:12.900Z,45.53
2019-05-14T10:33:40.089Z,45.63
2019-05-14T10:36:09.365Z,45.98
2019-05-14T10:38:38.958Z,44.06
2019-05-14T10:41:08.958Z,44.49
2019-05-14T10:43:39.185Z,43.39
2019-05-14T10:46:09.134Z,42.83
2019-05-14T10:48:39.598Z,42.80
2019-05-14T10:51:09.843Z,42.57
2019-05-14T10:53:39.209Z,41.19
2019-05-14T10:56:09.814Z,42.26
2019-05-14T10:58:39.081Z,42.42
2019-05-14T11:01:11.283Z,42.16
2019-05-14T11:03:39.036Z,41.26
2019-05-14T11:06:11.371Z,41.99
2019-05-14T11:08:38.999Z,41.43
2019-05-14T11:11:10.634Z,40.55
2019-05-14T11:13:39.500Z,39.73
2019-05-14T11:16:08.854Z,39.72
2019-05-14T11:18:39.904Z,40.88
2019-05-14T11:21:19.913Z,41.80
2019-05-14T11:23:39.521Z,41.41
2019-05-14T11:26:09.315Z,41.72
2019-05-14T11:28:39.484Z,41.64
2019-05-14T11:31:09.335Z,42.01
2019-05-14T11:33:38.978Z,38.81
2019-05-14T11:36:09.322Z,39.51
2019-05-14T11:38:38.582Z,39.26
2019-05-14T11:41:09.570Z,37.79
2019-05-14T11:43:39.666Z,37.65
2019-05-14T11:46:09.156Z,35.94
2019-05-14T11:48:39.287Z,36.25
2019-05-14T11:51:09.153Z,35.84
2019-05-14T11:53:38.697Z,35.42
2019-05-14T11:56:08.803Z,36.64
2019-05-14T11:58:38.751Z,34.56
2019-05-14T12:01:09.273Z,33.72
2019-05-14T12:03:39.447Z,32.94
2019-05-14T12:06:09.780Z,31.54
2019-05-14T12:08:41.839Z,31.13
2019-05-14T12:11:10.106Z,30.04
2019-05-14T12:13:39.662Z,29.83
2019-05-14T12:16:08.797Z,30.16
2019-05-14T12:18:41.802Z,29.90
2019-05-14T12:21:09.086Z,30.05
2019-05-14T12:23:39.336Z,30.17
2019-05-14T12:26:09.513Z,30.29
2019-05-14T12:28:38.978Z,30.24
2019-05-14T12:31:09.343Z,30.75
2019-05-14T12:33:39.707Z,30.81
2019-05-14T12:36:10.436Z,30.98
2019-05-14T12:38:39.610Z,31.34
2019-05-14T12:41:09.305Z,32.54
2019-05-14T12:43:39.751Z,32.89
2019-05-14T12:46:10.479Z,32.66
2019-05-14T12:48:39.777Z,32.48
2019-05-14T12:51:09.207Z,32.50
2019-05-14T12:53:39.408Z,32.59
2019-05-14T12:56:08.931Z,32.45
2019-05-14T12:58:45.256Z,32.63
2019-05-14T13:01:09.436Z,31.96
2019-05-14T13:03:38.574Z,31.39
2019-05-14T13:06:10.096Z,30.90
2019-05-14T13:08:38.887Z,30.85
2019-05-14T13:11:09.581Z,30.22
2019-05-14T13:13:42.643Z,29.97
2019-05-14T13:16:09.873Z,29.87
2019-05-14T13:18:39.026Z,30.13
2019-05-14T13:21:08.099Z,30.51
2019-05-14T13:23:38.416Z,30.30
2019-05-14T13:26:10.583Z,29.75
2019-05-14T13:28:39.780Z,29.09
2019-05-14T13:31:09.458Z,28.90
2019-05-14T13:33:39.241Z,29.51
2019-05-14T13:36:08.614Z,28.94
2019-05-14T13:38:39.624Z,28.93
2019-05-14T13:41:08.836Z,29.16
2019-05-14T13:43:39.216Z,29.31
2019-05-14T13:46:10.392Z,29.73
2019-05-14T13:48:43.150Z,30.14
2019-05-14T13:51:10.269Z,29.93
2019-05-14T13:53:39.326Z,30.50
2019-05-14T13:56:09.239Z,30.03
2019-05-14T13:58:38.527Z,30.28
2019-05-14T14:01:09.919Z,30.29
2019-05-14T14:03:48.102Z,30.49
2019-05-14T14:06:10.311Z,30.41
2019-05-14T14:08:42.311Z,30.17
2019-05-14T14:11:12.615Z,30.57
2019-05-14T14:13:41.680Z,30.88
2019-05-14T14:16:14.483Z,31.21
2019-05-14T14:18:41.594Z,31.56
2019-05-14T14:21:10.688Z,31.67
2019-05-14T14:23:39.739Z,30.22
2019-05-14T14:26:09.630Z,29.69
2019-05-14T14:28:39.608Z,29.51
2019-05-14T14:31:11.087Z,29.54
2019-05-14T14:33:39.696Z,29.02
2019-05-14T14:36:08.801Z,29.22
2019-05-14T14:38:40.191Z,29.35
2019-05-14T14:41:10.365Z,29.26
2019-05-14T14:43:43.320Z,28.45
2019-05-14T14:46:13.968Z,28.08
2019-05-14T14:48:41.769Z,27.95
2019-05-14T14:51:10.825Z,28.04
2019-05-14T14:53:52.287Z,27.78
2019-05-14T14:56:10.809Z,27.70
2019-05-14T14:58:39.970Z,27.59
2019-05-14T15:01:09.090Z,27.51
2019-05-14T15:03:38.185Z,27.71
2019-05-14T15:06:09.612Z,27.47
2019-05-14T15:08:38.974Z,27.55
2019-05-14T15:11:08.794Z,27.47
2019-05-14T15:13:39.130Z,27.34
2019-05-14T15:16:13.583Z,27.13
2019-05-14T15:18:39.211Z,27.12
2019-05-14T15:21:09.732Z,27.18
2019-05-14T15:23:43.122Z,26.87
2019-05-14T15:26:12.062Z,26.43
2019-05-14T15:28:40.619Z,26.54
2019-05-14T15:31:09.692Z,26.27
2019-05-14T15:33:38.787Z,26.47
2019-05-14T15:36:09.185Z,27.03
2019-05-14T15:38:39.595Z,26.96
2019-05-14T15:41:13.325Z,27.20
2019-05-14T15:43:39.783Z,27.59
2019-05-14T15:46:08.967Z,28.33
2019-05-14T15:48:39.560Z,27.98
2019-05-14T15:51:14.339Z,27.72
2019-05-14T15:53:39.702Z,26.58
2019-05-14T15:56:08.787Z,26.53
2019-05-14T15:58:38.976Z,26.85
2019-05-14T16:01:10.006Z,26.80
2019-05-14T16:03:41.544Z,26.77
2019-05-14T16:06:10.008Z,26.91
2019-05-14T16:08:40.161Z,27.17
2019-05-14T16:11:11.287Z,27.60
2019-05-14T16:13:40.309Z,27.53
2019-05-14T16:16:10.587Z,27.72
2019-05-14T16:18:39.880Z,27.87
2019-05-14T16:21:10.483Z,27.91
2019-05-14T16:23:40.127Z,27.81
2019-05-14T16:26:09.180Z,28.03
2019-05-14T16:28:39.504Z,27.65
2019-05-14T16:31:09.048Z,27.65
2019-05-14T16:33:40.466Z,28.12
2019-05-14T16:36:09.070Z,27.99
2019-05-14T16:38:39.575Z,27.07
2019-05-14T16:41:08.958Z,26.57
2019-05-14T16:43:39.992Z,26.64
2019-05-14T16:46:09.470Z,27.39
2019-05-14T16:48:39.620Z,27.66
2019-05-14T16:51:09.239Z,27.50
2019-05-14T16:53:38.359Z,27.97
2019-05-14T16:56:08.070Z,28.25
2019-05-14T16:58:38.647Z,28.44
2019-05-14T17:01:09.699Z,28.22
2019-05-14T17:03:39.681Z,28.23
2019-05-14T17:06:09.226Z,27.77
2019-05-14T17:08:39.351Z,28.04
2019-05-14T17:11:09.512Z,28.02
2019-05-14T17:13:38.608Z,27.90
2019-05-14T17:16:08.520Z,28.26
2019-05-14T17:18:37.959Z,28.31
2019-05-14T17:21:09.209Z,28.48
2019-05-14T17:23:39.312Z,28.42
2019-05-14T17:26:09.083Z,28.45
2019-05-14T17:28:40.444Z,28.56
2019-05-14T17:31:09.161Z,28.71
2019-05-14T17:33:39.510Z,28.66
2019-05-14T17:36:09.662Z,28.30
2019-05-14T17:38:39.629Z,28.43
2019-05-14T17:41:09.381Z,29.05
2019-05-14T17:43:39.674Z,28.87
2019-05-14T17:46:09.996Z,29.24
2019-05-14T17:48:39.413Z,29.29
2019-05-14T17:51:09.329Z,29.26
2019-05-14T17:53:38.843Z,29.29
2019-05-14T17:56:08.553Z,29.36
2019-05-14T17:58:38.440Z,29.49
2019-05-14T18:01:09.013Z,29.52
2019-05-14T18:03:40.028Z,29.17
2019-05-14T18:06:09.792Z,29.19
2019-05-14T18:08:38.875Z,29.21
2019-05-14T18:11:08.850Z,29.68
2019-05-14T18:13:39.027Z,30.04
2019-05-14T18:16:09.105Z,29.87
2019-05-14T18:18:38.440Z,30.15
2019-05-14T18:21:09.402Z,30.37
2019-05-14T18:23:41.755Z,30.36
2019-05-14T18:26:09.423Z,30.30
2019-05-14T18:28:38.614Z,30.42
2019-05-14T18:31:09.416Z,30.59
2019-05-14T18:33:39.851Z,31.20
2019-05-14T18:36:09.379Z,31.03
2019-05-14T18:38:38.997Z,31.12
2019-05-14T18:41:08.714Z,31.28
2019-05-14T18:43:37.905Z,31.47
2019-05-14T18:46:08.544Z,31.68
2019-05-14T18:48:37.745Z,31.82
2019-05-14T18:51:08.990Z,32.07
2019-05-14T18:53:38.459Z,32.41
2019-05-14T18:56:19.387Z,32.37
2019-05-14T18:58:38.924Z,32.45
2019-05-14T19:01:08.371Z,32.90
2019-05-14T19:03:39.567Z,33.20
2019-05-14T19:06:08.234Z,33.75
2019-05-14T19:08:39.389Z,33.84
2019-05-14T19:11:08.311Z,33.75
2019-05-14T19:13:38.959Z,34.03
2019-05-14T19:16:08.423Z,34.56
2019-05-14T19:18:38.562Z,34.84
2019-05-14T19:21:08.859Z,34.91
2019-05-14T19:23:38.610Z,35.47
2019-05-14T19:26:09.596Z,35.84
2019-05-14T19:28:39.027Z,35.95
2019-05-14T19:31:09.184Z,36.48
2019-05-14T19:33:38.402Z,36.65
2019-05-14T19:36:08.848Z,36.60
2019-05-14T19:38:38.916Z,36.77
2019-05-14T19:41:08.781Z,36.30
2019-05-14T19:43:37.960Z,36.55
2019-05-14T19:46:08.740Z,36.50
2019-05-14T19:48:37.976Z,37.35
2019-05-14T19:51:08.308Z,37.63
2019-05-14T19:53:39.247Z,37.78
2019-05-14T19:56:08.312Z,37.76
2019-05-14T19:58:38.338Z,38.09
2019-05-14T20:01:09.148Z,38.14
2019-05-14T20:03:38.346Z,38.32
2019-05-14T20:06:09.077Z,38.30
2019-05-14T20:08:38.656Z,38.35
2019-05-14T20:11:07.828Z,38.69
2019-05-14T20:13:39.185Z,38.82
2019-05-14T20:16:08.627Z,38.93
2019-05-14T20:18:38.368Z,39.29
2019-05-14T20:21:08.695Z,38.98
2019-05-14T20:23:38.663Z,38.82
2019-05-14T20:26:08.382Z,38.49
2019-05-14T20:28:39.101Z,38.46
2019-05-14T20:31:10.341Z,38.50
2019-05-14T20:33:39.080Z,38.84
2019-05-14T20:36:08.450Z,39.16
2019-05-14T20:38:38.750Z,39.81
2019-05-14T20:41:08.705Z,39.54
2019-05-14T20:43:38.637Z,39.50
2019-05-14T20:46:07.703Z,39.49
2019-05-14T20:48:39.000Z,39.60
2019-05-14T20:51:08.991Z,39.57
2019-05-14T20:53:39.641Z,40.08
2019-05-14T20:56:08.888Z,40.39
2019-05-14T20:58:38.873Z,40.58
2019-05-14T21:01:11.125Z,40.91
2019-05-14T21:03:38.965Z,40.84
2019-05-14T21:06:09.048Z,40.80
2019-05-14T21:08:38.267Z,41.06
2019-05-14T21:11:08.221Z,41.17
2019-05-14T21:13:37.503Z,41.28
2019-05-14T21:16:08.333Z,41.39
2019-05-14T21:18:41.029Z,41.45
2019-05-14T21:21:10.875Z,41.81
2019-05-14T21:23:38.940Z,41.82
2019-05-14T21:26:08.572Z,41.74
2019-05-14T21:28:39.232Z,41.94
2019-05-14T21:31:10.488Z,42.19
2019-05-14T21:33:39.296Z,42.53
2019-05-14T21:36:09.502Z,42.70
2019-05-14T21:38:41.073Z,42.64
2019-05-14T21:41:09.799Z,42.73
2019-05-14T21:43:38.900Z,43.03
2019-05-14T21:46:08.185Z,43.61
2019-05-14T21:48:38.720Z,44.12
2019-05-14T21:51:08.709Z,44.46
2019-05-14T21:53:40.833Z,44.67
2019-05-14T21:56:08.815Z,44.63
2019-05-14T21:58:38.780Z,44.89
2019-05-14T22:01:09.317Z,45.22
2019-05-14T22:03:40.229Z,45.27
2019-05-14T22:06:09.154Z,45.46
2019-05-14T22:08:39.254Z,45.44
2019-05-14T22:11:08.658Z,45.16
2019-05-14T22:13:38.233Z,45.58
2019-05-14T22:16:08.446Z,45.59
2019-05-14T22:18:38.876Z,45.77
2019-05-14T22:21:08.825Z,46.00
2019-05-14T22:23:38.920Z,46.10
2019-05-14T22:26:08.081Z,45.76
2019-05-14T22:28:37.132Z,45.78
2019-05-14T22:31:08.848Z,45.87
2019-05-14T22:33:38.228Z,45.80
2019-05-14T22:36:08.694Z,46.30
2019-05-14T22:38:38.897Z,46.44
2019-05-14T22:41:11.285Z,46.11
2019-05-14T22:43:39.002Z,46.43
2019-05-14T22:46:08.509Z,45.91
2019-05-14T22:48:37.616Z,45.80
2019-05-14T22:51:08.692Z,45.73
2019-05-14T22:53:38.930Z,45.71
2019-05-14T22:56:08.412Z,45.89
2019-05-14T22:58:38.259Z,46.40
2019-05-14T23:01:14.864Z,46.83
2019-05-14T23:03:39.634Z,46.91
2019-05-14T23:06:09.075Z,47.14
2019-05-14T23:08:39.178Z,47.22
2019-05-14T23:11:08.771Z,47.38
2019-05-14T23:13:39.151Z,47.62
2019-05-14T23:16:08.533Z,47.72
2019-05-14T23:18:38.135Z,47.93
2019-05-14T23:21:08.811Z,47.71
2019-05-14T23:23:39.285Z,47.79
2019-05-14T23:26:08.768Z,47.99
2019-05-14T23:28:44.689Z,48.33
2019-05-14T23:31:08.759Z,48.26
2019-05-14T23:33:38.790Z,48.23
2019-05-14T23:36:08.754Z,48.27
2019-05-14T23:38:39.696Z,48.54
2019-05-14T23:41:08.979Z,48.44
2019-05-14T23:43:39.070Z,48.76
2019-05-14T23:46:09.299Z,48.54
2019-05-14T23:48:39.561Z,48.36
2019-05-14T23:51:08.545Z,48.60
2019-05-14T23:53:39.263Z,48.39
2019-05-14T23:56:09.002Z,48.63
2019-05-14T23:58:38.106Z,49.12
